Aviation Digital Data Service (ADDS)

Output produced by METARs form (1707 UTC 24 April 2017)
found at http://www.aviationweather.gov/adds/metars/
 
FCBB 241600Z 07006KT 9999 FEW020 28/23 Q1011 NOSIG
TAF FCBB 241700Z 2418/2524 22006KT 8000 FEW018 
     BECMG 2423/2501 SCT016 FEW026CB 
     PROB30 
     TEMPO 2502/2507 4000 TSRA 
     BECMG 2507/2509 SCT018
       
FCPP 241600Z 23010KT 9999 FEW015 FEW030CB 29/25 Q1010 NOSIG
TAF FCPP 241700Z 2418/2518 24008 8000 FEW010 SCT023 
     BECMG 2420/2422 SCT010 FEW028 
     TEMPO 2422/2504 4000 TSRA 
     BECMG 2504/2506 FEW010 BKN020